Airfield :
LOGIN :

Register | Disclaimer

   EN    FR    IT 

 










Legend :    VFR   Marginal VFR   IFR   Intensive IFR   Very Intensive IFR
Visi :
Ceiling :
>= 8 km
>= 3000ft
5 to 8 km
1000 to 3000 ft
1500m to 5 km
500 to 1000 ft
800 to 1500m
200 to 500 ft
< 800m
< 200 ft
Symbols :   Thunderstorms  Fog  Heavy snow  Heavy precipitations  Wind > 20 kt
SIGMETs :     Misc.  Thunderstorms  Icing  Turbulence  Mountain Waves  Volcanic Ashes






- Airport Elevation : 299 ft
- IATA code : EDM


LFRI - La Roche Sur Yon - Les Ajoncs

CURRENT METAR :
  • 170530Z AUTO 00000KT 1100 0750 R28/1500D BCFG VV/// 01/01 Q1008 TEMPO 0500 FG

EXPIRED METARs :
  • 170500Z AUTO 06004KT 0800 0700 R28/0800N FG VV/// 01/01 Q1009
  • 170430Z AUTO 04002KT 1300 1200 R28/1500D BR VV/// M00/M00 Q1009
  • 170400Z AUTO 05003KT 1000 0900 R28/1300N BCFG VV/// 00/M00 Q1008
  • 170330Z AUTO 01002KT 0700 0600 R28/0750D FG VV/// 01/01 Q1008
  • 170300Z AUTO 36002KT 0800 0750 R28/0900U FG OVC038 01/01 Q1009

TAF TAF LFRI
Valid from the 17 at 06:00 until the 18 at 06:00 UTC


170500Z 1706/1806 VRB03KT 2000 BR BKN040
TEMPO 1706/1708 0500 FG VV///
BECMG 1708/1710 9999 NSW SCT006 BKN012
BECMG 1710/1712 BKN025
BECMG 1721/1724 2000 BR
TEMPO 1800/1806 0500 FG VV///



MET'MAP, your aeronautical weather chart ! - Copyright ORBIFLY December 2007 - Disclaimer

ORBIFLY MET'MAP TEAM :

Programming & Development : Alexandra Zaïnal
Concept & Development : Baudouin d'Aumeries
Co-Development & Prog : Marc-Olivier Méhu
Technical & hardware support : Manuel Goepfert

Contact : metmap@orbifly.com




SOURCES & CREDITS :

   NOAA